Time;durP1;ratioP1;P1;durP2;ratioP2;P2;SDS_P1;SDS_P2;PMS_P1;PMS_P2;Temp;Humidity;BMP_temperature;BMP_pressure;BME280_temperature;BME280_humidity;BME280_pressure;Samples;Min_cycle;Max_cycle;Signal;HPM_P1;HPM_P2
2021/12/20 00:01:00;;;;;;;;;;;;;;;17.73;50.53;102726.69;5041946;28;19917;-49
2021/12/20 00:03:25;;;;;;;;;;;;;;;17.71;50.46;102724.13;5043108;28;19913;-52
2021/12/20 00:05:50;;;;;;;;;;;;;;;17.70;50.56;102716.16;5045728;28;19913;-51
2021/12/20 00:08:15;;;;;;;;;;;;;;;17.70;50.61;102714.31;5046099;28;19956;-48
2021/12/20 00:10:40;;;;;;;;;;;;;;;17.69;50.63;102709.91;5045670;28;19949;-49
2021/12/20 00:13:05;;;;;;;;;;;;;;;17.69;50.44;102709.06;5045742;28;19917;-46
2021/12/20 00:15:31;;;;;;;;;;;;;;;17.67;50.69;102714.56;5045549;28;19984;-48
2021/12/20 00:17:56;;;;;;;;;;;;;;;17.67;50.39;102719.94;5044641;28;19924;-49
2021/12/20 00:20:21;;;;;;;;;;;;;;;17.67;50.64;102717.25;5045650;28;19913;-50
2021/12/20 00:22:46;;;;;;;;;;;;;;;17.66;50.42;102720.91;5045369;28;19924;-48
2021/12/20 00:25:12;;;;;;;;;;;;;;;17.66;50.61;102717.34;5045467;28;19918;-50
2021/12/20 00:27:37;;;;;;;;;;;;;;;17.65;50.53;102712.97;5045447;28;19913;-53
2021/12/20 00:30:03;;;;;;;;;;;;;;;17.65;50.60;102712.97;5045327;28;20019;-47
2021/12/20 00:32:28;;;;;;;;;;;;;;;17.63;50.48;102702.34;5044883;28;19913;-47
2021/12/20 00:34:53;;;;;;;;;;;;;;;17.64;50.45;102714.78;5045436;28;19913;-49
2021/12/20 00:40:21;;;;;;;;;;;;;;;17.62;50.59;102715.88;5045208;28;19928;-48
2021/12/20 00:42:47;;;;;;;;;;;;;;;17.61;50.63;102711.47;5045010;28;19913;-49
2021/12/20 00:45:12;;;;;;;;;;;;;;;17.61;50.43;102706.09;5045030;28;19917;-51
2021/12/20 00:47:37;;;;;;;;;;;;;;;17.60;50.56;102705.25;5044516;28;19940;-46
2021/12/20 00:50:03;;;;;;;;;;;;;;;17.59;50.62;102706.22;5044992;28;19937;-52
2021/12/20 00:52:29;;;;;;;;;;;;;;;17.58;50.56;102704.47;5045165;28;19980;-46
2021/12/20 00:54:54;;;;;;;;;;;;;;;17.57;50.46;102704.63;5043716;28;20012;-51
2021/12/20 00:57:19;;;;;;;;;;;;;;;17.57;50.46;102712.69;5044960;28;19924;-47
2021/12/20 00:59:44;;;;;;;;;;;;;;;17.56;50.64;102711.81;5044630;28;19925;-47
2021/12/20 01:02:09;;;;;;;;;;;;;;;17.55;50.57;102712.81;5044226;28;20417;-46
2021/12/20 01:04:34;;;;;;;;;;;;;;;17.54;50.45;102711.06;5044827;28;19917;-47
2021/12/20 01:06:59;;;;;;;;;;;;;;;17.54;50.61;102707.53;5044679;28;20024;-48
2021/12/20 01:09:25;;;;;;;;;;;;;;;17.53;50.61;102712.06;5044686;28;19921;-51
2021/12/20 01:11:53;;;;;;;;;;;;;;;17.53;50.61;102708.50;5044435;28;19921;-48
2021/12/20 01:14:23;;;;;;;;;;;;;;;17.53;50.58;102705.81;5044141;28;19913;-47
2021/12/20 01:16:48;;;;;;;;;;;;;;;17.52;50.56;102701.41;5042821;28;19921;-50
2021/12/20 01:19:14;;;;;;;;;;;;;;;17.50;50.46;102696.16;5044289;28;19925;-50
2021/12/20 01:21:39;;;;;;;;;;;;;;;17.49;50.41;102697.97;5044326;28;19948;-48
2021/12/20 01:24:04;;;;;;;;;;;;;;;17.48;50.48;102707.03;5044575;28;19940;-49
2021/12/20 01:26:29;;;;;;;;;;;;;;;17.48;50.64;102717.78;5059555;28;20364;-49
2021/12/20 01:28:55;;;;;;;;;;;;;;;17.48;50.66;102711.53;5044149;28;19913;-46
2021/12/20 01:31:20;;;;;;;;;;;;;;;17.47;50.43;102709.84;5043620;28;19913;-45
2021/12/20 01:33:45;;;;;;;;;;;;;;;17.47;50.58;102710.69;5029494;28;19913;-47
2021/12/20 01:36:10;;;;;;;;;;;;;;;17.46;50.58;102714.38;5024235;28;20408;-49
2021/12/20 01:38:35;;;;;;;;;;;;;;;17.46;50.63;102710.81;5024324;28;19913;-47
2021/12/20 01:41:00;;;;;;;;;;;;;;;17.45;50.58;102715.31;5024103;28;19949;-49
2021/12/20 01:43:26;;;;;;;;;;;;;;;17.44;50.55;102710.06;5024328;28;19914;-49
2021/12/20 01:45:51;;;;;;;;;;;;;;;17.43;50.39;102714.59;5032008;28;20000;-51
2021/12/20 01:48:18;;;;;;;;;;;;;;;17.42;50.49;102707.50;5043586;28;20472;-49
2021/12/20 01:53:10;;;;;;;;;;;;;;;17.41;50.64;102707.59;5044410;28;19913;-48
2021/12/20 01:55:35;;;;;;;;;;;;;;;17.40;50.42;102709.44;5043615;28;19913;-50
2021/12/20 01:58:01;;;;;;;;;;;;;;;17.38;50.44;102700.63;5043906;28;19917;-48
2021/12/20 02:00:28;;;;;;;;;;;;;;;17.38;50.55;102699.78;5043533;28;19917;-47
2021/12/20 02:02:58;;;;;;;;;;;;;;;17.38;50.66;102705.16;5043300;28;19944;-48
2021/12/20 02:05:35;;;;;;;;;;;;;;;17.37;50.66;102704.28;5043748;28;19913;-49
2021/12/20 02:08:13;;;;;;;;;;;;;;;17.36;50.49;102707.94;5043685;28;19923;-48
2021/12/20 02:10:38;;;;;;;;;;;;;;;17.36;50.69;102705.25;5043336;28;19955;-46
2021/12/20 02:13:03;;;;;;;;;;;;;;;17.34;50.61;102701.84;5042283;28;19913;-47
2021/12/20 02:15:29;;;;;;;;;;;;;;;17.35;50.41;102700.00;5042915;28;19925;-45
2021/12/20 02:17:54;;;;;;;;;;;;;;;17.33;50.66;102708.19;5042418;28;19925;-48
2021/12/20 02:20:23;;;;;;;;;;;;;;;17.33;50.65;102697.44;5043266;28;19948;-48
2021/12/20 02:22:48;;;;;;;;;;;;;;;17.32;50.61;102706.44;5043318;28;19913;-50
2021/12/20 02:25:14;;;;;;;;;;;;;;;17.32;50.52;102713.66;5043057;28;19920;-49
2021/12/20 02:27:39;;;;;;;;;;;;;;;17.31;50.42;102709.25;5042722;28;19913;-47
2021/12/20 02:30:25;;;;;;;;;;;;;;;17.30;50.41;102707.56;5058527;28;19928;-50
2021/12/20 02:36:57;;;;;;;;;;;;;;;17.28;50.44;102696.91;5043128;28;19920;-46
2021/12/20 02:38:33;;;;;;;;;;;;;;;17.28;50.35;102698.72;5042971;28;19984;-46
2021/12/20 02:41:00;;;;;;;;;;;;;;;17.28;50.46;102701.41;5042884;28;19928;-52
2021/12/20 02:43:28;;;;;;;;;;;;;;;17.26;50.43;102696.16;5043118;28;19913;-47
2021/12/20 02:45:57;;;;;;;;;;;;;;;17.26;50.49;102701.53;5042657;28;19921;-50
2021/12/20 02:48:22;;;;;;;;;;;;;;;17.25;50.58;102697.16;5042604;28;19964;-48
2021/12/20 02:50:47;;;;;;;;;;;;;;;17.24;50.55;102701.63;5042281;28;19936;-51
2021/12/20 02:53:12;;;;;;;;;;;;;;;17.25;50.64;102699.84;5043009;28;20297;-50
2021/12/20 02:55:37;;;;;;;;;;;;;;;17.24;50.67;102692.72;5042481;28;19920;-50
2021/12/20 02:58:02;;;;;;;;;;;;;;;17.23;50.57;102694.56;5042628;28;19918;-47
2021/12/20 03:00:28;;;;;;;;;;;;;;;17.23;50.38;102696.38;5042607;28;20754;-50
2021/12/20 03:02:53;;;;;;;;;;;;;;;17.23;50.67;102696.38;5042172;28;19914;-45
2021/12/20 03:05:18;;;;;;;;;;;;;;;17.22;50.35;102692.84;5042874;28;19963;-49
2021/12/20 03:07:50;;;;;;;;;;;;;;;17.22;50.38;102692.00;5042734;28;19975;-49
2021/12/20 03:10:15;;;;;;;;;;;;;;;17.20;50.66;102691.22;5042763;28;19976;-49
2021/12/20 03:12:40;;;;;;;;;;;;;;;17.20;50.52;102702.88;5042505;28;19913;-50
2021/12/20 03:15:12;;;;;;;;;;;;;;;17.20;50.47;102701.97;5042338;28;19921;-47
2021/12/20 03:17:38;;;;;;;;;;;;;;;17.20;50.60;102697.50;5041877;28;19913;-48
2021/12/20 03:20:04;;;;;;;;;;;;;;;17.19;50.37;102689.53;5042536;28;19936;-48
2021/12/20 03:22:29;;;;;;;;;;;;;;;17.18;50.58;102690.50;5042492;28;19980;-48
2021/12/20 03:24:54;;;;;;;;;;;;;;;17.18;50.41;102687.81;5041129;28;19925;-50
2021/12/20 03:27:20;;;;;;;;;;;;;;;17.15;50.54;102683.50;5042408;28;19936;-47
2021/12/20 03:29:45;;;;;;;;;;;;;;;17.15;50.46;102680.81;5042493;28;19928;-49
2021/12/20 03:32:10;;;;;;;;;;;;;;;17.15;50.42;102688.03;5041931;28;20013;-48
2021/12/20 03:34:36;;;;;;;;;;;;;;;17.15;50.45;102688.03;5042730;28;20006;-51
2021/12/20 03:37:01;;;;;;;;;;;;;;;17.14;50.43;102689.88;5042317;28;19913;-50
2021/12/20 03:39:26;;;;;;;;;;;;;;;17.14;50.32;102692.56;5045390;28;19940;-48
2021/12/20 03:41:51;;;;;;;;;;;;;;;17.14;50.44;102691.69;5044820;28;19980;-48
2021/12/20 03:44:16;;;;;;;;;;;;;;;17.13;50.35;102696.22;5061931;28;19913;-49
2021/12/20 03:46:42;;;;;;;;;;;;;;;17.12;50.52;102693.63;5045315;28;19936;-48
2021/12/20 03:49:07;;;;;;;;;;;;;;;17.12;50.54;102701.69;5046092;28;19921;-52
2021/12/20 03:51:32;;;;;;;;;;;;;;;17.12;50.48;102696.31;5046055;28;19969;-47
2021/12/20 03:53:57;;;;;;;;;;;;;;;17.09;50.43;102694.72;5046397;28;19913;-49
2021/12/20 03:56:23;;;;;;;;;;;;;;;17.10;50.43;102692.91;5045682;28;19969;-49
2021/12/20 03:58:48;;;;;;;;;;;;;;;17.07;50.62;102691.28;5044512;28;20027;-52
2021/12/20 04:01:13;;;;;;;;;;;;;;;17.08;50.41;102694.84;5045383;28;19913;-44
2021/12/20 04:03:39;;;;;;;;;;;;;;;17.06;50.51;102692.25;5045879;28;19920;-50
2021/12/20 04:06:05;;;;;;;;;;;;;;;17.06;50.47;102696.78;5061259;28;19919;-48
2021/12/20 04:08:30;;;;;;;;;;;;;;;17.05;50.46;102701.31;5046058;28;20259;-50
2021/12/20 04:10:55;;;;;;;;;;;;;;;17.05;50.45;102690.53;5045690;28;19973;-50
2021/12/20 04:13:20;;;;;;;;;;;;;;;17.04;50.53;102699.59;5045952;28;19928;-46
2021/12/20 04:15:45;;;;;;;;;;;;;;;17.05;50.32;102695.06;5045041;28;20401;-47
2021/12/20 04:18:11;;;;;;;;;;;;;;;17.02;50.62;102696.13;5045232;28;19917;-50
2021/12/20 04:20:36;;;;;;;;;;;;;;;17.02;50.45;102706.88;5045436;28;19913;-49
2021/12/20 04:23:01;;;;;;;;;;;;;;;17.02;50.63;102703.34;5045401;28;19913;-47
2021/12/20 04:25:26;;;;;;;;;;;;;;;17.02;50.36;102703.34;5045729;28;19920;-50
2021/12/20 04:27:51;;;;;;;;;;;;;;;17.02;50.52;102706.03;5045224;28;19913;-46
2021/12/20 04:30:16;;;;;;;;;;;;;;;17.01;50.62;102698.94;5045328;28;19917;-50
2021/12/20 04:32:42;;;;;;;;;;;;;;;16.99;50.48;102699.94;5060134;28;19958;-47
2021/12/20 04:35:08;;;;;;;;;;;;;;;16.99;50.61;102697.25;5045554;28;19917;-47
2021/12/20 04:37:33;;;;;;;;;;;;;;;16.99;50.59;102697.25;5045370;28;19913;-51
2021/12/20 04:40:00;;;;;;;;;;;;;;;16.98;50.38;102700.88;5045300;28;19917;-48
2021/12/20 04:42:25;;;;;;;;;;;;;;;16.98;50.41;102703.56;5043927;28;19913;-48
2021/12/20 04:44:50;;;;;;;;;;;;;;;16.98;50.54;102702.72;5045014;28;19914;-50
2021/12/20 04:47:15;;;;;;;;;;;;;;;16.97;50.58;102704.53;5044484;28;19935;-45
2021/12/20 04:49:40;;;;;;;;;;;;;;;16.97;50.44;102698.31;5044779;28;19952;-47
2021/12/20 04:52:06;;;;;;;;;;;;;;;16.95;50.44;102695.75;5045016;28;19920;-47
2021/12/20 04:54:31;;;;;;;;;;;;;;;16.94;50.42;102699.38;5045176;28;19980;-46
2021/12/20 04:56:56;;;;;;;;;;;;;;;16.95;50.39;102701.13;5044546;28;19938;-48
2021/12/20 04:59:21;;;;;;;;;;;;;;;16.94;50.31;102701.22;5044979;28;19949;-49
2021/12/20 05:01:46;;;;;;;;;;;;;;;16.94;50.55;102698.53;5044222;28;20660;-50
2021/12/20 05:04:11;;;;;;;;;;;;;;;16.95;50.36;102700.28;5044992;28;19920;-47
2021/12/20 05:06:37;;;;;;;;;;;;;;;16.93;50.36;102703.06;5044563;28;20006;-50
2021/12/20 05:09:04;;;;;;;;;;;;;;;16.92;50.44;102701.34;5044784;28;19964;-46
2021/12/20 05:11:30;;;;;;;;;;;;;;;16.85;50.54;102685.78;5044712;28;19917;-50
2021/12/20 05:13:55;;;;;;;;;;;;;;;16.92;50.39;102692.44;5044574;28;19920;-47
2021/12/20 05:16:21;;;;;;;;;;;;;;;16.91;50.43;102694.25;5043638;28;19956;-48
2021/12/20 05:18:46;;;;;;;;;;;;;;;16.90;50.43;102703.25;5044602;28;19948;-49
2021/12/20 05:21:12;;;;;;;;;;;;;;;16.90;50.42;102705.09;5044593;28;19919;-47
2021/12/20 05:23:37;;;;;;;;;;;;;;;16.88;50.50;102697.16;5044457;28;20390;-50
2021/12/20 05:26:02;;;;;;;;;;;;;;;16.88;50.40;102690.94;5044327;28;19924;-52
2021/12/20 05:28:27;;;;;;;;;;;;;;;16.88;50.42;102702.53;5044312;28;19917;-52
2021/12/20 05:30:53;;;;;;;;;;;;;;;16.88;50.41;102707.91;5044089;28;19917;-46
2021/12/20 05:33:19;;;;;;;;;;;;;;;16.87;50.40;102708.88;5044198;28;19913;-48
2021/12/20 05:35:44;;;;;;;;;;;;;;;16.87;50.36;102705.34;5044255;28;19913;-50
2021/12/20 05:38:09;;;;;;;;;;;;;;;16.86;50.43;102709.81;5044022;28;19921;-48
2021/12/20 05:40:35;;;;;;;;;;;;;;;16.86;50.63;102714.34;5044140;28;19913;-47
2021/12/20 05:43:00;;;;;;;;;;;;;;;16.86;50.37;102717.88;5044207;28;19917;-46
2021/12/20 05:45:25;;;;;;;;;;;;;;;16.86;50.52;102727.78;5043980;28;19916;-48
2021/12/20 05:47:50;;;;;;;;;;;;;;;16.86;50.41;102727.78;5043181;28;20007;-47
2021/12/20 05:50:16;;;;;;;;;;;;;;;16.86;50.32;102725.09;5043786;28;19920;-50
2021/12/20 05:52:41;;;;;;;;;;;;;;;16.85;50.36;102728.75;5042555;28;20298;-50
2021/12/20 05:55:07;;;;;;;;;;;;;;;16.84;50.45;102732.41;5043783;28;19913;-48
2021/12/20 05:57:33;;;;;;;;;;;;;;;16.85;50.42;102728.75;5043714;28;19916;-51
2021/12/20 05:59:58;;;;;;;;;;;;;;;16.83;50.53;102726.19;5043778;28;19923;-48
2021/12/20 06:02:24;;;;;;;;;;;;;;;16.84;50.54;102735.97;5041991;28;19917;-49
2021/12/20 06:04:50;;;;;;;;;;;;;;;16.83;50.45;102728.88;5042675;28;19916;-50
2021/12/20 06:07:16;;;;;;;;;;;;;;;16.84;50.59;102727.91;5043184;28;19921;-45
2021/12/20 06:09:42;;;;;;;;;;;;;;;16.84;50.66;102721.69;5042348;28;19917;-48
2021/12/20 06:12:07;;;;;;;;;;;;;;;16.84;50.73;102721.69;5042752;28;19924;-49
2021/12/20 06:14:33;;;;;;;;;;;;;;;16.85;50.62;102728.75;5039958;28;19921;-48
2021/12/20 06:17:00;;;;;;;;;;;;;;;16.84;50.86;102730.59;5042106;28;19964;-48
2021/12/20 06:19:25;;;;;;;;;;;;;;;16.84;50.78;102724.34;5042816;28;19966;-50
2021/12/20 06:21:50;;;;;;;;;;;;;;;16.85;51.03;102731.44;5042576;28;19964;-51
2021/12/20 06:24:15;;;;;;;;;;;;;;;16.83;50.95;102726.19;5042493;28;19917;-47
2021/12/20 06:26:41;;;;;;;;;;;;;;;16.85;50.79;102736.81;5039522;28;19913;-48
2021/12/20 06:29:06;;;;;;;;;;;;;;;16.84;50.81;102729.72;5042519;28;19917;-45
2021/12/20 06:31:31;;;;;;;;;;;;;;;16.84;51.00;102738.66;5042583;28;20437;-48
2021/12/20 06:33:56;;;;;;;;;;;;;;;16.86;50.79;102738.53;5042819;28;20334;-52
2021/12/20 06:36:21;;;;;;;;;;;;;;;16.84;50.93;102735.09;5042418;28;19980;-52
2021/12/20 06:38:47;;;;;;;;;;;;;;;16.84;50.90;102741.34;5042410;28;19917;-47
2021/12/20 06:41:13;;;;;;;;;;;;;;;16.85;51.11;102734.13;5042379;28;19919;-48
2021/12/20 06:43:38;;;;;;;;;;;;;;;16.84;50.96;102738.66;5057777;28;19921;-50
2021/12/20 06:46:03;;;;;;;;;;;;;;;16.84;50.96;102741.34;5042086;28;19917;-49
2021/12/20 06:48:28;;;;;;;;;;;;;;;16.84;51.06;102738.66;5041835;28;19939;-50
2021/12/20 06:50:53;;;;;;;;;;;;;;;16.85;51.20;102745.72;5038006;28;19917;-50
2021/12/20 06:53:19;;;;;;;;;;;;;;;16.85;51.11;102742.19;5042342;28;20375;-51
2021/12/20 06:55:44;;;;;;;;;;;;;;;16.84;51.14;102744.03;5042237;28;19948;-47
2021/12/20 06:58:09;;;;;;;;;;;;;;;16.86;51.12;102760.88;5039542;28;19928;-48
2021/12/20 07:00:34;;;;;;;;;;;;;;;16.86;51.18;102758.19;5041990;28;19968;-48
2021/12/20 07:03:00;;;;;;;;;;;;;;;16.85;51.25;102751.09;5041672;28;19917;-48
2021/12/20 07:05:25;;;;;;;;;;;;;;;16.85;51.19;102755.63;5042243;28;19913;-49
2021/12/20 07:07:50;;;;;;;;;;;;;;;16.85;51.13;102750.25;5041931;28;19947;-50
2021/12/20 07:10:15;;;;;;;;;;;;;;;16.85;51.16;102742.19;5041856;28;19947;-49
2021/12/20 07:12:40;;;;;;;;;;;;;;;16.83;51.26;102750.38;5043681;28;19913;-47
2021/12/20 07:15:06;;;;;;;;;;;;;;;16.83;51.29;102753.06;5046187;28;20024;-50
2021/12/20 07:17:31;;;;;;;;;;;;;;;16.84;51.31;102754.75;5045551;28;20015;-51
2021/12/20 07:19:58;;;;;;;;;;;;;;;16.85;51.29;102751.09;5045886;28;19917;-49
2021/12/20 07:22:23;;;;;;;;;;;;;;;16.88;51.27;102750.88;5046046;28;19921;-48
2021/12/20 07:24:48;;;;;;;;;;;;;;;16.89;51.09;102757.13;5045832;28;19963;-48
2021/12/20 07:27:13;;;;;;;;;;;;;;;16.92;51.16;102751.53;5045982;28;19914;-48
2021/12/20 07:29:39;;;;;;;;;;;;;;;16.93;50.97;102761.31;5061051;28;19913;-50
2021/12/20 07:32:04;;;;;;;;;;;;;;;16.95;51.16;102759.38;5045323;28;20375;-49
2021/12/20 07:34:29;;;;;;;;;;;;;;;16.97;50.89;102757.44;5045926;28;19913;-47
2021/12/20 07:36:55;;;;;;;;;;;;;;;16.96;50.80;102759.25;5045930;28;20385;-51
2021/12/20 07:39:20;;;;;;;;;;;;;;;16.98;50.71;102767.19;5045926;28;19924;-51
2021/12/20 07:41:45;;;;;;;;;;;;;;;16.99;50.80;102766.22;5045743;28;19913;-51
2021/12/20 07:44:10;;;;;;;;;;;;;;;16.99;50.77;102771.59;5045704;28;19925;-48
2021/12/20 07:46:36;;;;;;;;;;;;;;;16.99;50.97;102771.59;5044806;28;19921;-50
2021/12/20 07:49:01;;;;;;;;;;;;;;;17.01;50.81;102774.19;5045543;28;20300;-49
2021/12/20 07:51:26;;;;;;;;;;;;;;;17.01;50.84;102774.19;5045243;28;19917;-46
2021/12/20 07:53:51;;;;;;;;;;;;;;;17.02;50.82;102781.28;5045620;28;19913;-49
2021/12/20 07:56:17;;;;;;;;;;;;;;;17.02;50.87;102783.97;5045643;28;19913;-48
2021/12/20 07:58:42;;;;;;;;;;;;;;;17.02;50.85;102774.06;5045969;28;19964;-52
2021/12/20 08:01:08;;;;;;;;;;;;;;;17.02;50.65;102768.69;5045730;28;19921;-51
2021/12/20 08:03:34;;;;;;;;;;;;;;;17.04;50.61;102772.16;5045587;28;19924;-50
2021/12/20 08:06:00;;;;;;;;;;;;;;;17.04;50.68;102777.53;5045949;28;19913;-52
2021/12/20 08:08:25;;;;;;;;;;;;;;;17.05;50.72;102789.13;5045926;28;19913;-48
2021/12/20 08:10:51;;;;;;;;;;;;;;;17.06;50.45;102780.09;5045366;28;19920;-48
2021/12/20 08:13:16;;;;;;;;;;;;;;;17.08;50.39;102783.53;5045606;28;19917;-52
2021/12/20 08:15:41;;;;;;;;;;;;;;;17.08;50.31;102786.22;5045359;28;20008;-49
2021/12/20 08:18:06;;;;;;;;;;;;;;;17.09;50.27;102786.09;5045110;28;19921;-48
2021/12/20 08:20:32;;;;;;;;;;;;;;;17.10;50.40;102778.91;5045533;28;19977;-51
2021/12/20 08:22:57;;;;;;;;;;;;;;;17.12;50.36;102790.38;5045597;28;19913;-51
2021/12/20 08:25:22;;;;;;;;;;;;;;;17.14;50.38;102799.22;5044644;28;19982;-48
2021/12/20 08:27:48;;;;;;;;;;;;;;;17.16;50.36;102795.44;5045095;28;19952;-49
2021/12/20 08:30:13;;;;;;;;;;;;;;;17.19;50.50;102795.22;5044761;28;19982;-47
2021/12/20 08:32:38;;;;;;;;;;;;;;;17.23;50.46;102793.16;5044414;28;19913;-51
2021/12/20 08:35:04;;;;;;;;;;;;;;;17.28;50.45;102799.06;5045258;28;19923;-49
2021/12/20 08:37:29;;;;;;;;;;;;;;;17.31;50.42;102803.34;5045439;28;19920;-48
2021/12/20 08:39:54;;;;;;;;;;;;;;;17.35;50.30;102805.72;5044160;28;20282;-46
2021/12/20 08:42:20;;;;;;;;;;;;;;;17.39;50.09;102811.72;5044677;28;19913;-45
2021/12/20 08:44:45;;;;;;;;;;;;;;;17.48;50.01;102816.44;5041553;28;19917;-49
2021/12/20 08:47:10;;;;;;;;;;;;;;;17.60;50.05;102817.34;5043094;28;19976;-49
2021/12/20 08:49:35;;;;;;;;;;;;;;;17.70;49.77;102821.94;5044521;28;19924;-47
2021/12/20 08:52:00;;;;;;;;;;;;;;;17.80;49.72;102816.78;5044483;28;19920;-50
2021/12/20 08:54:28;;;;;;;;;;;;;;;17.87;49.47;102827.91;5044614;28;19913;-50
2021/12/20 08:56:53;;;;;;;;;;;;;;;17.89;49.17;102824.16;5043966;28;19952;-45
2021/12/20 08:59:19;;;;;;;;;;;;;;;17.91;49.13;102826.72;5041462;28;19947;-48
2021/12/20 09:01:44;;;;;;;;;;;;;;;17.91;49.03;102832.94;5043447;28;19913;-49
2021/12/20 09:04:09;;;;;;;;;;;;;;;17.91;49.16;102822.19;5044342;28;19913;-48
2021/12/20 09:06:38;;;;;;;;;;;;;;;17.92;49.01;102831.97;5044133;28;19913;-49
2021/12/20 09:09:04;;;;;;;;;;;;;;;17.92;49.11;102834.66;5044792;28;19940;-48
2021/12/20 09:11:29;;;;;;;;;;;;;;;17.91;48.93;102832.09;5044309;28;19921;-48
2021/12/20 09:13:54;;;;;;;;;;;;;;;17.90;49.00;102828.56;5042960;28;19957;-51
2021/12/20 09:16:19;;;;;;;;;;;;;;;17.91;49.22;102834.78;5043454;28;19944;-49
2021/12/20 09:18:45;;;;;;;;;;;;;;;17.90;49.00;102838.47;5059914;28;19917;-51
2021/12/20 09:21:11;;;;;;;;;;;;;;;17.91;48.99;102834.78;5044143;28;19921;-50
2021/12/20 09:23:37;;;;;;;;;;;;;;;17.91;48.99;102841.03;5026535;28;19913;-51
2021/12/20 09:26:02;;;;;;;;;;;;;;;17.91;49.04;102834.78;5024402;28;19928;-50
2021/12/20 09:28:27;;;;;;;;;;;;;;;17.92;49.14;102839.19;5030756;28;19920;-50
2021/12/20 09:30:52;;;;;;;;;;;;;;;17.90;49.12;102833.06;5043742;28;19924;-51
2021/12/20 09:33:18;;;;;;;;;;;;;;;17.92;49.29;102836.50;5043880;28;19913;-50
2021/12/20 09:35:43;;;;;;;;;;;;;;;17.89;49.19;102845.69;5043148;28;19926;-49
2021/12/20 09:38:11;;;;;;;;;;;;;;;17.89;49.32;102843.00;5044129;28;19992;-50
2021/12/20 09:40:39;;;;;;;;;;;;;;;17.89;49.26;102847.50;5043449;28;19996;-49
2021/12/20 09:43:06;;;;;;;;;;;;;;;17.89;49.42;102843.00;5044015;28;19916;-49
2021/12/20 09:45:32;;;;;;;;;;;;;;;17.89;49.23;102851.06;5044123;28;19966;-51
2021/12/20 09:47:57;;;;;;;;;;;;;;;17.90;49.71;102846.53;5043165;28;19963;-49
2021/12/20 09:50:23;;;;;;;;;;;;;;;17.91;49.89;102853.63;5043819;28;19950;-46
2021/12/20 09:52:48;;;;;;;;;;;;;;;17.91;49.71;102850.94;5043666;28;19967;-47
2021/12/20 09:55:15;;;;;;;;;;;;;;;17.91;49.72;102846.41;5043809;28;19960;-43
2021/12/20 09:57:40;;;;;;;;;;;;;;;17.90;49.85;102844.69;5042509;28;19937;-45
2021/12/20 10:00:07;;;;;;;;;;;;;;;17.90;49.76;102852.78;5043819;28;19921;-45
2021/12/20 10:02:32;;;;;;;;;;;;;;;17.90;50.02;102847.38;5043039;28;19913;-48
2021/12/20 10:04:57;;;;;;;;;;;;;;;17.90;50.09;102850.06;5042411;28;19969;-45
2021/12/20 10:07:24;;;;;;;;;;;;;;;17.90;50.29;102855.47;5042177;28;19924;-45
2021/12/20 10:09:50;;;;;;;;;;;;;;;17.91;50.27;102853.63;5043558;28;19917;-48
2021/12/20 10:12:22;;;;;;;;;;;;;;;17.90;50.67;102849.22;5043479;28;19913;-47
2021/12/20 10:15:04;;;;;;;;;;;;;;;17.90;50.57;102857.28;5043173;28;19971;-49
2021/12/20 10:17:35;;;;;;;;;;;;;;;17.89;50.70;102856.44;5042609;28;19967;-45
2021/12/20 10:20:13;;;;;;;;;;;;;;;17.89;50.91;102853.75;5043273;28;20489;-45
2021/12/20 10:22:39;;;;;;;;;;;;;;;17.89;50.72;102856.44;5043400;28;19920;-50
2021/12/20 10:25:04;;;;;;;;;;;;;;;17.89;50.78;102858.28;5043119;28;19913;-49
2021/12/20 10:27:34;;;;;;;;;;;;;;;17.88;50.85;102860.13;5058418;28;19928;-48
2021/12/20 10:30:00;;;;;;;;;;;;;;;17.89;50.95;102852.91;5043073;28;19920;-46
2021/12/20 10:32:38;;;;;;;;;;;;;;;17.88;50.82;102860.13;5042545;28;19913;-46
2021/12/20 10:35:03;;;;;;;;;;;;;;;17.88;50.89;102856.53;5041857;28;19939;-47
2021/12/20 10:37:38;;;;;;;;;;;;;;;17.86;51.03;102845.91;5058255;28;19936;-46
2021/12/20 10:40:03;;;;;;;;;;;;;;;17.88;50.75;102854.72;5043143;28;20090;-47
2021/12/20 10:42:30;;;;;;;;;;;;;;;17.88;50.93;102862.81;5043077;28;19913;-48
2021/12/20 10:45:14;;;;;;;;;;;;;;;17.88;50.89;102856.53;5042911;28;20293;-49
2021/12/20 10:47:40;;;;;;;;;;;;;;;17.87;50.64;102852.13;5042092;28;19917;-45
2021/12/20 10:50:21;;;;;;;;;;;;;;;17.85;50.61;102854.94;5042517;28;19917;-48
2021/12/20 10:52:46;;;;;;;;;;;;;;;17.85;50.49;102860.34;5028385;28;19951;-49
2021/12/20 10:55:11;;;;;;;;;;;;;;;17.84;50.32;102853.25;5038984;28;20640;-48
2021/12/20 10:57:37;;;;;;;;;;;;;;;17.84;50.42;102853.25;5039589;28;19940;-50
2021/12/20 11:00:22;;;;;;;;;;;;;;;17.84;50.18;102852.34;5047545;28;19918;-42
2021/12/20 11:03:20;;;;;;;;;;;;;;;17.83;50.15;102847.94;5032480;28;19913;-45
2021/12/20 11:06:01;;;;;;;;;;;;;;;17.83;50.38;102848.81;5040524;28;19936;-45
2021/12/20 11:11:11;;;;;;;;;;;;;;;17.84;50.34;102838.91;5037372;28;20055;-48
2021/12/20 11:13:38;;;;;;;;;;;;;;;17.84;50.13;102847.84;5050880;28;19933;-49
2021/12/20 11:16:41;;;;;;;;;;;;;;;17.84;50.33;102845.16;5039176;28;19983;-45
2021/12/20 11:19:06;;;;;;;;;;;;;;;17.86;50.25;102845.91;4978531;28;20025;-46
2021/12/20 11:21:32;;;;;;;;;;;;;;;17.86;50.21;102840.50;4978129;28;20012;-46
2021/12/20 11:23:58;;;;;;;;;;;;;;;17.87;50.26;102833.28;4979026;28;19919;-46
2021/12/20 11:26:24;;;;;;;;;;;;;;;17.88;50.16;102835.00;4978488;28;19937;-47
2021/12/20 11:28:51;;;;;;;;;;;;;;;17.89;50.17;102840.28;4978712;28;19918;-47
2021/12/20 11:31:16;;;;;;;;;;;;;;;17.89;50.29;102843.00;4977804;28;19914;-45
2021/12/20 11:33:41;;;;;;;;;;;;;;;17.89;50.41;102843.00;4979135;28;19990;-45
2021/12/20 11:36:06;;;;;;;;;;;;;;;17.90;50.02;102833.94;4978914;28;20454;-46
2021/12/20 11:38:31;;;;;;;;;;;;;;;17.92;50.14;102836.50;4962685;28;19926;-48
2021/12/20 11:41:00;;;;;;;;;;;;;;;17.93;50.09;102841.78;4961571;28;19959;-48
2021/12/20 11:43:25;;;;;;;;;;;;;;;17.94;49.83;102832.72;4963116;28;19949;-47
2021/12/20 11:45:50;;;;;;;;;;;;;;;17.96;49.88;102841.53;4962486;28;19925;-45
2021/12/20 11:48:15;;;;;;;;;;;;;;;17.97;50.01;102837.88;4978574;28;19918;-44
2021/12/20 11:50:42;;;;;;;;;;;;;;;17.99;50.05;102833.22;5019934;28;19913;-44
2021/12/20 11:53:08;;;;;;;;;;;;;;;18.01;49.83;102833.13;5039657;28;19924;-45
2021/12/20 11:55:34;;;;;;;;;;;;;;;18.03;49.80;102835.69;5040023;28;19921;-46
2021/12/20 11:57:59;;;;;;;;;;;;;;;18.04;49.87;102830.19;5039435;28;19939;-44
2021/12/20 12:00:25;;;;;;;;;;;;;;;18.06;49.72;102836.34;5041064;28;19936;-46
2021/12/20 12:02:51;;;;;;;;;;;;;;;18.08;49.88;102825.44;5042877;28;19932;-43
2021/12/20 12:05:37;;;;;;;;;;;;;;;18.08;49.91;102833.50;5043768;28;19956;-48
2021/12/20 12:08:21;;;;;;;;;;;;;;;18.09;49.63;102830.69;5009359;28;19920;-44
2021/12/20 12:10:46;;;;;;;;;;;;;;;18.10;49.80;102829.75;5034080;28;20393;-46
2021/12/20 12:13:15;;;;;;;;;;;;;;;18.11;49.77;102839.53;5039843;28;19988;-43
2021/12/20 12:15:59;;;;;;;;;;;;;;;18.13;49.61;102826.78;5029427;28;19979;-44
2021/12/20 12:18:42;;;;;;;;;;;;;;;18.15;49.60;102837.47;5034802;28;19933;-48
2021/12/20 12:21:07;;;;;;;;;;;;;;;18.16;49.54;102831.09;5038380;28;20000;-44
2021/12/20 12:23:33;;;;;;;;;;;;;;;18.15;49.41;102837.47;5041063;28;19921;-42
2021/12/20 12:26:00;;;;;;;;;;;;;;;18.18;49.53;102838.09;5057889;28;19917;-46
2021/12/20 12:28:26;;;;;;;;;;;;;;;18.20;49.24;102840.66;5041933;28;19980;-46
2021/12/20 12:30:59;;;;;;;;;;;;;;;18.22;49.18;102841.38;5039004;28;20386;-43
2021/12/20 12:33:26;;;;;;;;;;;;;;;18.23;49.08;102838.59;5042389;28;19917;-48
2021/12/20 12:35:51;;;;;;;;;;;;;;;18.25;49.08;102835.78;5042969;28;19917;-47
2021/12/20 12:38:20;;;;;;;;;;;;;;;18.26;49.09;102832.09;5042891;28;19963;-46
2021/12/20 12:40:48;;;;;;;;;;;;;;;18.28;49.08;102837.38;5042398;28;19913;-51
2021/12/20 12:43:17;;;;;;;;;;;;;;;18.29;49.07;102829.19;5044904;28;19921;-47